Time;durP1;ratioP1;P1;durP2;ratioP2;P2;SDS_P1;SDS_P2;PMS_P1;PMS_P2;Temp;Humidity;BMP_temperature;BMP_pressure;BME280_temperature;BME280_humidity;BME280_pressure;Samples;Min_cycle;Max_cycle;Signal;HPM_P1;HPM_P2
2023/09/15 00:00:42;;;;;;;7.78;2.97;;;;;;;;;;5000488;28;20061;-91
2023/09/15 00:03:08;;;;;;;8.50;3.10;;;;;;;;;;4968227;28;20056;-93
2023/09/15 00:05:34;;;;;;;5.45;2.83;;;;;;;;;;4984434;28;20054;-92
2023/09/15 00:08:04;;;;;;;6.65;3.03;;;;;;;;;;4983987;28;20045;-92
2023/09/15 00:10:31;;;;;;;6.70;3.35;;;;;;;;;;4981272;28;20038;-89
2023/09/15 00:12:58;;;;;;;5.50;3.10;;;;;;;;;;4998153;28;20050;-92
2023/09/15 00:15:27;;;;;;;7.38;2.90;;;;;;;;;;4998505;28;20549;-91
2023/09/15 00:17:56;;;;;;;8.30;3.50;;;;;;;;;;4983231;28;20053;-91
2023/09/15 00:20:24;;;;;;;5.88;4.07;;;;;;;;;;4999814;28;20050;-92
2023/09/15 00:22:52;;;;;;;6.88;2.83;;;;;;;;;;4999523;28;20050;-93
2023/09/15 00:25:26;;;;;;;4.85;3.10;;;;;;;;;;4984436;28;20061;-91
2023/09/15 00:27:53;;;;;;;6.35;2.90;;;;;;;;;;4984562;28;20050;-91
2023/09/15 00:30:20;;;;;;;6.18;3.53;;;;;;;;;;4967165;28;20050;-92
2023/09/15 00:32:48;;;;;;;6.50;2.88;;;;;;;;;;4997828;28;20049;-91
2023/09/15 00:35:16;;;;;;;12.23;3.35;;;;;;;;;;4981265;28;20144;-92
2023/09/15 00:37:43;;;;;;;4.40;3.13;;;;;;;;;;4966688;28;20038;-94
2023/09/15 00:40:10;;;;;;;4.95;3.10;;;;;;;;;;4983230;28;20050;-91
2023/09/15 00:42:42;;;;;;;6.82;3.10;;;;;;;;;;4983942;28;20046;-92
2023/09/15 00:45:14;;;;;;;4.45;3.03;;;;;;;;;;4998798;28;20081;-92
2023/09/15 00:47:40;;;;;;;5.13;2.90;;;;;;;;;;4980355;28;20061;-92
2023/09/15 00:50:07;;;;;;;6.22;3.33;;;;;;;;;;4996867;28;20102;-91
2023/09/15 00:52:34;;;;;;;6.35;3.15;;;;;;;;;;4997700;28;20093;-92
2023/09/15 00:55:01;;;;;;;3.38;2.67;;;;;;;;;;4998720;28;20123;-91
2023/09/15 00:57:28;;;;;;;4.50;2.80;;;;;;;;;;4981376;28;20042;-91
2023/09/15 00:59:54;;;;;;;6.78;2.92;;;;;;;;;;4998328;28;20057;-92
2023/09/15 01:02:20;;;;;;;4.05;2.58;;;;;;;;;;4997253;28;20057;-91
2023/09/15 01:04:47;;;;;;;3.90;2.80;;;;;;;;;;4996348;28;20144;-89
2023/09/15 01:07:13;;;;;;;6.68;3.03;;;;;;;;;;4979055;28;20121;-92
2023/09/15 01:09:39;;;;;;;6.55;2.90;;;;;;;;;;4995567;28;20077;-92
2023/09/15 01:12:07;;;;;;;5.85;3.10;;;;;;;;;;4994533;28;20093;-91
2023/09/15 01:14:34;;;;;;;6.85;3.40;;;;;;;;;;4994948;28;20092;-91
2023/09/15 01:17:10;;;;;;;8.55;3.50;;;;;;;;;;4978208;28;20085;-91
2023/09/15 01:19:50;;;;;;;5.63;2.95;;;;;;;;;;4979919;28;20051;-91
2023/09/15 01:22:16;;;;;;;5.68;3.15;;;;;;;;;;4981002;28;20042;-91
2023/09/15 01:24:42;;;;;;;7.55;3.20;;;;;;;;;;4997358;28;20559;-91
2023/09/15 01:27:24;;;;;;;9.77;3.72;;;;;;;;;;4997297;28;20042;-90
2023/09/15 01:29:58;;;;;;;4.13;2.83;;;;;;;;;;4979789;28;20566;-90
2023/09/15 01:32:25;;;;;;;6.97;2.65;;;;;;;;;;4977417;28;20043;-88
2023/09/15 01:34:53;;;;;;;3.70;2.80;;;;;;;;;;4995869;28;20049;-90
2023/09/15 01:37:20;;;;;;;4.25;2.60;;;;;;;;;;4996861;28;20046;-90
2023/09/15 01:39:46;;;;;;;3.90;3.13;;;;;;;;;;4979715;28;20147;-90
2023/09/15 01:42:12;;;;;;;4.43;2.85;;;;;;;;;;4997548;28;20160;-92
2023/09/15 01:44:38;;;;;;;8.05;2.92;;;;;;;;;;4981779;28;20133;-90
2023/09/15 01:47:08;;;;;;;6.43;2.60;;;;;;;;;;4998577;28;20047;-92
2023/09/15 01:49:35;;;;;;;6.93;2.92;;;;;;;;;;4998867;28;20052;-92
2023/09/15 01:52:02;;;;;;;5.80;3.20;;;;;;;;;;4966743;28;20443;-92
2023/09/15 01:54:28;;;;;;;4.15;3.05;;;;;;;;;;4981069;28;20515;-91
2023/09/15 01:56:54;;;;;;;9.13;3.20;;;;;;;;;;4982946;28;20058;-91
2023/09/15 01:59:20;;;;;;;7.75;2.55;;;;;;;;;;4987305;28;20050;-91
2023/09/15 02:01:46;;;;;;;4.82;2.95;;;;;;;;;;5004955;28;20077;-91
2023/09/15 02:04:12;;;;;;;5.22;2.78;;;;;;;;;;4970182;28;20051;-91
2023/09/15 02:06:38;;;;;;;7.22;2.90;;;;;;;;;;5004147;28;20057;-93
2023/09/15 02:09:05;;;;;;;6.70;3.30;;;;;;;;;;4988352;28;20050;-94
2023/09/15 02:11:31;;;;;;;7.88;2.90;;;;;;;;;;5003037;28;20491;-93
2023/09/15 02:13:57;;;;;;;3.83;2.60;;;;;;;;;;5003530;28;20048;-92
2023/09/15 02:16:27;;;;;;;6.05;2.83;;;;;;;;;;4987976;28;20053;-93
2023/09/15 02:18:53;;;;;;;7.47;3.40;;;;;;;;;;4987933;28;20116;-94
2023/09/15 02:21:19;;;;;;;3.55;2.38;;;;;;;;;;4987623;28;20073;-91
2023/09/15 02:23:45;;;;;;;5.38;2.75;;;;;;;;;;5002617;28;20050;-91
2023/09/15 02:26:11;;;;;;;6.68;3.10;;;;;;;;;;5006202;28;20130;-92
2023/09/15 02:28:37;;;;;;;10.52;2.92;;;;;;;;;;4985244;28;20077;-90
2023/09/15 02:31:04;;;;;;;6.28;3.05;;;;;;;;;;4982025;28;20093;-90
2023/09/15 02:33:31;;;;;;;10.07;3.03;;;;;;;;;;5001191;28;20414;-91
2023/09/15 02:35:57;;;;;;;6.55;2.80;;;;;;;;;;5000247;28;20125;-89
2023/09/15 02:38:23;;;;;;;21.13;3.85;;;;;;;;;;5001466;28;20043;-92
2023/09/15 02:40:49;;;;;;;4.65;3.20;;;;;;;;;;5002199;28;20085;-93
2023/09/15 02:43:15;;;;;;;6.45;3.35;;;;;;;;;;5004123;28;20398;-93
2023/09/15 02:45:41;;;;;;;5.13;3.20;;;;;;;;;;4987366;28;20050;-95
2023/09/15 02:48:07;;;;;;;5.70;2.72;;;;;;;;;;5003948;28;20049;-92
2023/09/15 02:50:33;;;;;;;5.78;3.33;;;;;;;;;;5005093;28;20053;-95
2023/09/15 02:53:00;;;;;;;17.13;3.53;;;;;;;;;;5005489;28;20129;-95
2023/09/15 02:55:26;;;;;;;3.42;2.42;;;;;;;;;;4988467;28;20089;-93
2023/09/15 02:57:52;;;;;;;5.25;3.78;;;;;;;;;;4989058;28;20111;-94
2023/09/15 03:00:21;;;;;;;10.02;3.33;;;;;;;;;;4989572;28;20053;-91
2023/09/15 03:02:48;;;;;;;5.25;2.90;;;;;;;;;;4988895;28;20042;-92
2023/09/15 03:05:14;;;;;;;6.60;3.08;;;;;;;;;;5005607;28;20499;-93
2023/09/15 03:07:40;;;;;;;4.88;2.67;;;;;;;;;;4986322;28;20038;-91
2023/09/15 03:10:07;;;;;;;8.65;3.13;;;;;;;;;;5001089;28;20046;-93
2023/09/15 03:12:36;;;;;;;8.35;2.92;;;;;;;;;;4978219;28;20043;-86
2023/09/15 03:15:06;;;;;;;3.28;2.97;;;;;;;;;;4994209;28;20101;-87
2023/09/15 03:17:37;;;;;;;3.67;2.92;;;;;;;;;;4994013;28;20046;-89
2023/09/15 03:20:13;;;;;;;6.57;3.05;;;;;;;;;;4994153;28;20048;-91
2023/09/15 03:22:39;;;;;;;5.72;3.10;;;;;;;;;;4995750;28;20098;-91
2023/09/15 03:25:05;;;;;;;4.38;2.97;;;;;;;;;;4995681;28;20042;-90
2023/09/15 03:27:32;;;;;;;11.95;3.72;;;;;;;;;;4994506;28;20042;-92
2023/09/15 03:29:58;;;;;;;7.00;3.28;;;;;;;;;;4995726;28;20045;-89
2023/09/15 03:32:24;;;;;;;6.32;3.10;;;;;;;;;;4977949;28;20110;-91
2023/09/15 03:34:50;;;;;;;3.80;2.90;;;;;;;;;;4995250;28;20517;-89
2023/09/15 03:37:16;;;;;;;9.30;3.08;;;;;;;;;;4994034;28;20459;-89
2023/09/15 03:39:42;;;;;;;5.20;3.33;;;;;;;;;;4994104;28;20128;-89
2023/09/15 03:42:09;;;;;;;4.28;3.28;;;;;;;;;;4993826;28;20042;-89
2023/09/15 03:44:35;;;;;;;6.18;3.65;;;;;;;;;;4962224;28;20093;-90
2023/09/15 03:47:02;;;;;;;4.03;3.10;;;;;;;;;;4977404;28;20052;-89
2023/09/15 03:49:28;;;;;;;7.03;3.08;;;;;;;;;;4961556;28;20100;-87
2023/09/15 03:51:54;;;;;;;6.28;3.35;;;;;;;;;;4977435;28;20042;-87
2023/09/15 03:54:20;;;;;;;9.93;3.03;;;;;;;;;;4993302;28;20392;-87
2023/09/15 03:56:46;;;;;;;6.18;3.13;;;;;;;;;;4993229;28;20098;-86
2023/09/15 03:59:12;;;;;;;6.47;3.47;;;;;;;;;;4977663;28;20038;-88
2023/09/15 04:01:39;;;;;;;5.13;3.58;;;;;;;;;;4993060;28;20054;-88
2023/09/15 04:04:05;;;;;;;6.93;4.00;;;;;;;;;;4994703;28;20053;-87
2023/09/15 04:06:32;;;;;;;3.55;3.20;;;;;;;;;;4994769;28;20046;-88
2023/09/15 04:08:59;;;;;;;6.20;3.00;;;;;;;;;;4994271;28;20090;-88
2023/09/15 04:11:25;;;;;;;4.68;3.45;;;;;;;;;;4994577;28;20049;-89
2023/09/15 04:13:51;;;;;;;6.95;3.50;;;;;;;;;;4993307;28;20110;-86
2023/09/15 04:16:17;;;;;;;8.55;4.13;;;;;;;;;;4993917;28;20051;-86
2023/09/15 04:18:43;;;;;;;6.20;4.22;;;;;;;;;;4960965;28;20046;-86
2023/09/15 04:21:10;;;;;;;6.65;3.67;;;;;;;;;;4959702;28;20490;-87
2023/09/15 04:23:36;;;;;;;7.78;3.33;;;;;;;;;;4960992;28;20503;-88
2023/09/15 04:26:02;;;;;;;5.43;2.88;;;;;;;;;;4992648;28;20082;-86
2023/09/15 04:28:28;;;;;;;5.43;3.53;;;;;;;;;;4992829;28;20129;-86
2023/09/15 04:30:54;;;;;;;10.60;3.08;;;;;;;;;;4976771;28;20057;-89
2023/09/15 04:33:20;;;;;;;4.85;3.05;;;;;;;;;;4993721;28;20518;-88
2023/09/15 04:35:48;;;;;;;6.82;3.53;;;;;;;;;;4976390;28;20057;-88
2023/09/15 04:38:14;;;;;;;8.77;3.72;;;;;;;;;;4976505;28;20423;-87
2023/09/15 04:40:41;;;;;;;7.53;3.25;;;;;;;;;;4992343;28;20054;-88
2023/09/15 04:43:07;;;;;;;6.55;3.38;;;;;;;;;;4992715;28;20555;-91
2023/09/15 04:45:33;;;;;;;11.52;3.00;;;;;;;;;;4976569;28;20133;-87
2023/09/15 04:48:00;;;;;;;6.45;3.03;;;;;;;;;;4960452;28;20064;-88
2023/09/15 04:50:26;;;;;;;4.22;2.80;;;;;;;;;;4976649;28;20046;-86
2023/09/15 04:52:52;;;;;;;4.30;3.22;;;;;;;;;;4992321;28;20100;-90
2023/09/15 04:55:19;;;;;;;5.85;2.97;;;;;;;;;;4975824;28;20157;-87
2023/09/15 04:57:46;;;;;;;5.90;2.97;;;;;;;;;;4997448;28;20086;-91
2023/09/15 05:00:12;;;;;;;4.13;2.70;;;;;;;;;;4996382;28;20046;-87
2023/09/15 05:02:42;;;;;;;9.55;3.08;;;;;;;;;;4999851;28;20057;-92
2023/09/15 05:05:08;;;;;;;6.03;3.30;;;;;;;;;;4964497;28;20057;-90
2023/09/15 05:07:35;;;;;;;4.22;3.08;;;;;;;;;;4995100;28;20046;-91
2023/09/15 05:10:01;;;;;;;10.13;3.60;;;;;;;;;;4997774;28;20042;-91
2023/09/15 05:12:27;;;;;;;5.70;3.17;;;;;;;;;;4999838;28;20050;-91
2023/09/15 05:14:53;;;;;;;4.05;3.03;;;;;;;;;;4997096;28;20491;-89
2023/09/15 05:17:19;;;;;;;5.53;3.75;;;;;;;;;;4998218;28;20061;-93
2023/09/15 05:19:47;;;;;;;7.80;3.10;;;;;;;;;;4999924;28;20061;-93
2023/09/15 05:22:13;;;;;;;8.90;3.60;;;;;;;;;;4997914;28;20050;-94
2023/09/15 05:24:39;;;;;;;3.67;2.83;;;;;;;;;;4997519;28;20049;-92
2023/09/15 05:27:05;;;;;;;3.72;3.22;;;;;;;;;;4981690;28;20103;-93
2023/09/15 05:29:31;;;;;;;5.85;3.30;;;;;;;;;;4981141;28;20054;-92
2023/09/15 05:31:57;;;;;;;6.53;3.38;;;;;;;;;;4980077;28;20038;-90
2023/09/15 05:34:23;;;;;;;4.80;3.30;;;;;;;;;;4980017;28;20088;-92
2023/09/15 05:36:50;;;;;;;4.03;3.50;;;;;;;;;;4997268;28;20104;-92
2023/09/15 05:39:16;;;;;;;6.20;3.60;;;;;;;;;;4996432;28;20052;-93
2023/09/15 05:41:42;;;;;;;8.50;3.33;;;;;;;;;;4996339;28;20050;-91
2023/09/15 05:44:08;;;;;;;5.55;3.35;;;;;;;;;;4991554;28;20061;-88
2023/09/15 05:46:35;;;;;;;6.03;3.33;;;;;;;;;;4976613;28;20042;-86
2023/09/15 05:49:01;;;;;;;6.95;3.55;;;;;;;;;;4976889;28;20047;-87
2023/09/15 05:51:27;;;;;;;4.28;3.20;;;;;;;;;;4991898;28;20042;-91
2023/09/15 05:53:53;;;;;;;9.32;3.60;;;;;;;;;;4975162;28;20392;-88
2023/09/15 05:56:19;;;;;;;7.85;3.13;;;;;;;;;;4975241;28;20174;-89
2023/09/15 05:58:45;;;;;;;10.05;4.30;;;;;;;;;;4959821;28;20109;-88
2023/09/15 06:01:11;;;;;;;5.25;3.28;;;;;;;;;;4989504;28;20058;-89
2023/09/15 06:03:37;;;;;;;9.07;3.72;;;;;;;;;;4964182;28;20050;-89
2023/09/15 06:06:04;;;;;;;5.03;3.47;;;;;;;;;;4990167;28;20068;-88
2023/09/15 06:08:30;;;;;;;6.45;3.28;;;;;;;;;;4975596;28;20053;-87
2023/09/15 06:10:56;;;;;;;7.25;4.15;;;;;;;;;;4975740;28;20078;-86
2023/09/15 06:13:23;;;;;;;4.45;3.90;;;;;;;;;;4976187;28;20061;-88
2023/09/15 06:15:49;;;;;;;5.18;3.30;;;;;;;;;;4975052;28;20046;-88
2023/09/15 06:18:15;;;;;;;10.65;3.80;;;;;;;;;;4991497;28;20050;-86
2023/09/15 06:20:41;;;;;;;8.55;4.57;;;;;;;;;;4974446;28;20049;-90
2023/09/15 06:23:07;;;;;;;6.18;4.25;;;;;;;;;;4972625;28;20050;-88
2023/09/15 06:25:33;;;;;;;12.95;4.10;;;;;;;;;;4971227;28;20039;-89
2023/09/15 06:28:00;;;;;;;9.52;4.03;;;;;;;;;;4985045;28;20046;-89
2023/09/15 06:30:27;;;;;;;7.72;4.35;;;;;;;;;;4991089;28;20098;-89
2023/09/15 06:32:55;;;;;;;5.35;3.88;;;;;;;;;;4975060;28;20082;-89
2023/09/15 06:35:22;;;;;;;8.80;3.97;;;;;;;;;;4990891;28;20038;-89
2023/09/15 06:37:48;;;;;;;7.00;3.88;;;;;;;;;;4975051;28;20123;-89
2023/09/15 06:40:14;;;;;;;6.00;4.20;;;;;;;;;;4992187;28;20491;-90
2023/09/15 06:42:41;;;;;;;5.65;4.03;;;;;;;;;;4990966;28;20089;-89
2023/09/15 06:45:07;;;;;;;5.63;4.50;;;;;;;;;;4976744;28;20078;-89
2023/09/15 06:47:33;;;;;;;7.05;3.97;;;;;;;;;;5000946;28;20038;-92
2023/09/15 06:50:00;;;;;;;8.35;4.32;;;;;;;;;;5000530;28;20130;-92
2023/09/15 06:52:26;;;;;;;6.18;4.28;;;;;;;;;;4993764;28;20038;-90
2023/09/15 06:54:52;;;;;;;9.30;4.95;;;;;;;;;;4980929;28;20069;-88
2023/09/15 06:57:18;;;;;;;7.82;4.47;;;;;;;;;;4966470;28;20117;-90
2023/09/15 06:59:44;;;;;;;4.97;4.00;;;;;;;;;;4999056;28;20047;-92
2023/09/15 07:02:10;;;;;;;8.75;4.10;;;;;;;;;;4999413;28;20508;-92
2023/09/15 07:04:36;;;;;;;6.72;4.00;;;;;;;;;;4982460;28;20043;-90
2023/09/15 07:07:02;;;;;;;11.35;4.88;;;;;;;;;;4996873;28;20096;-91
2023/09/15 07:09:28;;;;;;;5.95;4.28;;;;;;;;;;4995264;28;20049;-90
2023/09/15 07:11:54;;;;;;;5.90;4.00;;;;;;;;;;4992784;28;20491;-91
2023/09/15 07:14:20;;;;;;;5.90;4.63;;;;;;;;;;4986962;28;20035;-89
2023/09/15 07:16:49;;;;;;;8.68;4.53;;;;;;;;;;4968592;28;20038;-89
2023/09/15 07:19:16;;;;;;;5.57;4.05;;;;;;;;;;4966347;28;20507;-91
2023/09/15 07:21:43;;;;;;;6.45;4.55;;;;;;;;;;4980437;28;20046;-89
2023/09/15 07:24:10;;;;;;;5.43;3.72;;;;;;;;;;4969038;28;20050;-89
2023/09/15 07:26:36;;;;;;;9.13;4.88;;;;;;;;;;4968754;28;20049;-90
2023/09/15 07:29:03;;;;;;;9.70;4.82;;;;;;;;;;4967601;28;20042;-90
2023/09/15 07:31:30;;;;;;;12.88;4.82;;;;;;;;;;4968216;28;20057;-90
2023/09/15 07:33:56;;;;;;;4.95;3.88;;;;;;;;;;4983357;28;20038;-91
2023/09/15 07:36:23;;;;;;;5.70;3.92;;;;;;;;;;4983897;28;20132;-89
2023/09/15 07:38:49;;;;;;;6.50;3.90;;;;;;;;;;4966974;28;20050;-89
2023/09/15 07:41:15;;;;;;;4.80;3.60;;;;;;;;;;4982189;28;20034;-89
2023/09/15 07:43:41;;;;;;;6.75;4.40;;;;;;;;;;4981846;28;20050;-90
2023/09/15 07:46:07;;;;;;;4.97;4.38;;;;;;;;;;4950007;28;20048;-90
2023/09/15 07:48:33;;;;;;;11.50;4.28;;;;;;;;;;4982271;28;20058;-89
2023/09/15 07:50:59;;;;;;;9.73;4.57;;;;;;;;;;4967037;28;20116;-89
2023/09/15 07:53:26;;;;;;;7.07;4.28;;;;;;;;;;4982043;28;20475;-89
2023/09/15 07:55:52;;;;;;;6.25;3.38;;;;;;;;;;4983342;28;20054;-90
2023/09/15 07:58:21;;;;;;;6.32;3.50;;;;;;;;;;4966819;28;20965;-89
2023/09/15 08:00:47;;;;;;;6.68;4.05;;;;;;;;;;4980415;28;20057;-89
2023/09/15 08:03:13;;;;;;;6.30;4.00;;;;;;;;;;4981862;28;20586;-88
2023/09/15 08:05:39;;;;;;;6.55;4.03;;;;;;;;;;4982304;28;20065;-89
2023/09/15 08:08:05;;;;;;;6.13;4.22;;;;;;;;;;4966423;28;20034;-90
2023/09/15 08:10:32;;;;;;;7.15;4.03;;;;;;;;;;4968499;28;20144;-89
2023/09/15 08:12:58;;;;;;;6.35;4.15;;;;;;;;;;4983329;28;20049;-90
2023/09/15 08:15:24;;;;;;;6.38;3.75;;;;;;;;;;4984172;28;20050;-86
2023/09/15 08:17:51;;;;;;;9.00;3.67;;;;;;;;;;4985731;28;20534;-91
2023/09/15 08:20:17;;;;;;;8.68;3.90;;;;;;;;;;4985824;28;20043;-89
2023/09/15 08:22:44;;;;;;;3.63;2.97;;;;;;;;;;4985109;28;20100;-90
2023/09/15 08:25:14;;;;;;;7.65;3.95;;;;;;;;;;4967909;28;20104;-91
2023/09/15 08:27:43;;;;;;;7.40;3.42;;;;;;;;;;4982833;28;20053;-89
2023/09/15 08:30:09;;;;;;;5.65;3.75;;;;;;;;;;4966064;28;20053;-92
2023/09/15 08:32:35;;;;;;;6.82;4.50;;;;;;;;;;4983914;28;20069;-89
2023/09/15 08:35:01;;;;;;;3.85;2.85;;;;;;;;;;4965683;28;20054;-88
2023/09/15 08:37:27;;;;;;;5.57;3.40;;;;;;;;;;4966246;28;20124;-89
2023/09/15 08:39:54;;;;;;;10.30;4.38;;;;;;;;;;4982535;28;20042;-86
2023/09/15 08:42:21;;;;;;;10.85;3.17;;;;;;;;;;4982411;28;20639;-87
2023/09/15 08:44:49;;;;;;;5.20;3.20;;;;;;;;;;4982696;28;20038;-88
2023/09/15 08:47:15;;;;;;;4.07;2.97;;;;;;;;;;4964791;28;20043;-90
2023/09/15 08:49:43;;;;;;;6.28;3.45;;;;;;;;;;4982204;28;20046;-91
2023/09/15 08:52:09;;;;;;;6.32;3.70;;;;;;;;;;4948363;28;20524;-88
2023/09/15 08:54:36;;;;;;;10.10;3.10;;;16.10;1.00;;;;;;4948085;28;20069;-87
2023/09/15 08:57:02;;;;;;;4.82;2.83;;;;;;;;;;4964290;28;20058;-88
2023/09/15 08:59:28;;;;;;;5.85;2.70;;;;;;;;;;4964806;28;20042;-87
2023/09/15 09:01:55;;;;;;;8.75;3.88;;;;;;;;;;4965186;28;20050;-88
2023/09/15 09:04:21;;;;;;;4.68;2.85;;;;;;;;;;4948607;28;20072;-88
2023/09/15 09:06:47;;;;;;;3.80;2.95;;;;;;;;;;4980559;28;20058;-89
2023/09/15 09:09:19;;;;;;;8.15;3.17;;;;;;;;;;4964588;28;20439;-88
2023/09/15 09:11:45;;;;;;;8.02;3.63;;;16.70;1.00;;;;;;4980566;28;20510;-87
2023/09/15 09:14:12;;;;;;;7.15;4.25;;;;;;;;;;4964377;28;20042;-89
2023/09/15 09:16:42;;;;;;;4.07;3.28;;;16.80;1.00;;;;;;4980445;28;20112;-90
2023/09/15 09:19:08;;;;;;;6.25;3.40;;;;;;;;;;4981793;28;20075;-89
2023/09/15 09:21:35;;;;;;;5.57;3.50;;;;;;;;;;4980995;28;20108;-87
2023/09/15 09:24:02;;;;;;;5.85;3.53;;;;;;;;;;4979155;28;20582;-86
2023/09/15 09:26:28;;;;;;;7.05;3.58;;;;;;;;;;4980613;28;20084;-88
2023/09/15 09:28:56;;;;;;;8.15;3.75;;;;;;;;;;4980412;28;20100;-89
2023/09/15 09:31:24;;;;;;;7.57;3.55;;;;;;;;;;4980898;28;20058;-86
2023/09/15 09:33:50;;;;;;;5.35;3.40;;;;;;;;;;4980943;28;20046;-88
2023/09/15 09:36:17;;;;;;;9.73;3.65;;;;;;;;;;4980638;28;20503;-88
2023/09/15 09:38:51;;;;;;;5.22;3.33;;;17.40;1.00;;;;;;4980117;28;20054;-86
2023/09/15 09:41:22;;;;;;;12.38;3.67;;;17.60;1.00;;;;;;4980560;28;20066;-86
2023/09/15 09:43:49;;;;;;;8.35;4.15;;;;;;;;;;4964788;28;20093;-87
2023/09/15 09:46:21;;;;;;;9.32;3.65;;;17.70;1.00;;;;;;4964721;28;20050;-87
2023/09/15 09:48:48;;;;;;;6.05;3.78;;;17.80;1.00;;;;;;4995478;28;20034;-86
2023/09/15 09:51:14;;;;;;;9.18;3.63;;;;;;;;;;4976958;28;20045;-89
2023/09/15 09:53:41;;;;;;;5.32;3.42;;;;;;;;;;4981568;28;20042;-87
2023/09/15 09:56:07;;;;;;;6.32;3.70;;;;;;;;;;4983448;28;20065;-86
2023/09/15 09:58:34;;;;;;;6.10;3.72;;;17.90;1.00;;;;;;4965073;28;20192;-87
2023/09/15 10:01:06;;;;;;;7.57;4.20;;;17.90;1.00;;;;;;4980063;28;20176;-87
2023/09/15 10:03:32;;;;;;;5.85;3.80;;;;;;;;;;4995521;28;20050;-86
2023/09/15 10:05:59;;;;;;;6.85;3.75;;;18.20;1.00;;;;;;4980309;28;20035;-87
2023/09/15 10:08:26;;;;;;;9.20;4.60;;;18.40;1.00;;;;;;4980286;28;20133;-88
2023/09/15 10:10:53;;;;;;;8.43;4.78;;;;;;;;;;4964590;28;20050;-87
2023/09/15 10:13:19;;;;;;;6.30;4.18;;;;;;;;;;4963612;28;20092;-88
2023/09/15 10:15:47;;;;;;;8.43;3.80;;;18.50;1.00;;;;;;4981294;28;20046;-87
2023/09/15 10:18:18;;;;;;;7.07;4.45;;;18.70;1.00;;;;;;4966722;28;20161;-88
2023/09/15 10:20:46;;;;;;;5.68;3.88;;;18.60;1.00;;;;;;4985575;28;20050;-87
2023/09/15 10:23:15;;;;;;;6.10;3.78;;;;;;;;;;4986952;28;20046;-86
2023/09/15 10:26:09;;;;;;;8.98;4.43;;;;;;;;;;4986024;28;20049;-87
2023/09/15 10:28:37;;;;;;;8.32;4.22;;;;;;;;;;4971446;28;20050;-88
2023/09/15 10:31:05;;;;;;;4.35;3.40;;;18.80;1.00;;;;;;4988694;28;21463;-89
2023/09/15 10:33:32;;;;;;;6.72;4.07;;;;;;;;;;4971422;28;20158;-89
2023/09/15 10:36:08;;;;;;;6.38;3.65;;;;;;;;;;4971893;28;20173;-89
2023/09/15 10:38:38;;;;;;;4.35;3.63;;;;;;;;;;4970967;28;20130;-89
2023/09/15 10:41:09;;;;;;;11.75;4.47;;;;;;;;;;4986326;28;20479;-89
2023/09/15 10:43:35;;;;;;;5.80;3.90;;;;;;;;;;4987548;28;20753;-89
2023/09/15 10:46:03;;;;;;;9.77;4.13;;;19.10;1.00;;;;;;4970941;28;20100;-88
2023/09/15 10:48:42;;;;;;;7.25;3.60;;;19.20;1.00;;;;;;4986107;28;20050;-88
2023/09/15 10:51:09;;;;;;;5.43;3.55;;;19.10;1.00;;;;;;4987050;28;20050;-89
2023/09/15 10:54:05;;;;;;;6.03;3.25;;;19.30;1.00;;;;;;4973755;28;20055;-89
2023/09/15 10:56:34;;;;;;;4.10;3.05;;;;;;;;;;4976545;28;20054;-87
2023/09/15 10:59:00;;;;;;;8.27;3.30;;;19.20;1.00;;;;;;4979718;28;20062;-89
2023/09/15 11:01:30;;;;;;;4.60;3.67;;;19.70;1.00;;;;;;4969983;28;20042;-89
2023/09/15 11:03:57;;;;;;;5.22;3.55;;;;;;;;;;4971072;28;20046;-89
2023/09/15 11:06:29;;;;;;;7.53;3.28;;;19.60;1.00;;;;;;4954799;28;20045;-88
2023/09/15 11:08:57;;;;;;;3.88;3.33;;;19.90;1.00;;;;;;4969871;28;20068;-89
2023/09/15 11:11:26;;;;;;;6.35;3.33;;;19.70;1.00;;;;;;4970443;28;20038;-88
2023/09/15 11:13:54;;;;;;;8.43;3.25;;;;;;;;;;4969159;28;20096;-88
2023/09/15 11:16:20;;;;;;;5.18;2.90;;;;;;;;;;4986078;28;20065;-88
2023/09/15 11:18:47;;;;;;;5.30;2.97;;;;;;;;;;4985783;28;20399;-89
2023/09/15 11:21:13;;;;;;;3.97;2.92;;;;;;;;;;4987336;28;20054;-88
2023/09/15 11:23:44;;;;;;;6.30;3.83;;;19.90;1.00;;;;;;4985984;28;20046;-88
2023/09/15 11:26:10;;;;;;;3.97;3.03;;;;;;;;;;4967873;28;20054;-88
2023/09/15 11:28:36;;;;;;;6.45;3.30;;;;;;;;;;4984483;28;20046;-87
2023/09/15 11:31:06;;;;;;;5.20;3.08;;;20.10;1.00;;;;;;4968167;28;20053;-91
2023/09/15 11:33:32;;;;;;;8.40;3.00;;;;;;;;;;4984611;28;20191;-87
2023/09/15 11:36:00;;;;;;;7.75;2.67;;;;;;;;;;4951225;28;20074;-89
2023/09/15 11:38:26;;;;;;;5.18;3.03;;;20.20;1.00;;;;;;4966613;28;20092;-89
2023/09/15 11:40:53;;;;;;;6.32;3.20;;;;;;;;;;4983386;28;20056;-88
2023/09/15 11:43:24;;;;;;;10.48;3.25;;;20.20;1.00;;;;;;4970456;28;20051;-87
2023/09/15 11:45:51;;;;;;;5.60;3.20;;;20.20;1.00;;;;;;4983800;28;20038;-87
2023/09/15 11:48:18;;;;;;;5.72;2.90;;;;;;;;;;4982500;28;20042;-87
2023/09/15 11:50:44;;;;;;;3.38;2.85;;;;;;;;;;4969039;28;20146;-88
2023/09/15 11:53:10;;;;;;;8.57;4.32;;;;;;;;;;4972099;28;20109;-88
2023/09/15 11:55:36;;;;;;;4.82;3.38;;;;;;;;;;4974018;28;20088;-89
2023/09/15 11:58:03;;;;;;;10.95;3.28;;;20.50;1.00;;;;;;4971511;28;20050;-89
2023/09/15 12:00:33;;;;;;;9.02;3.20;;;;;;;;;;4970872;28;20070;-89
2023/09/15 12:03:00;;;;;;;3.70;2.38;;;20.30;1.00;;;;;;4985760;28;20054;-92
2023/09/15 12:05:29;;;;;;;5.05;2.88;;;;;;;;;;4979228;28;20117;-94
2023/09/15 12:07:55;;;;;;;10.50;4.05;;;20.30;1.00;;;;;;4969122;28;20054;-93
2023/09/15 12:10:22;;;;;;;4.22;2.60;;;20.50;1.00;;;;;;4972394;28;20053;-94
2023/09/15 12:12:49;;;;;;;3.38;2.55;;;;;;;;;;4975423;28;20154;-93
2023/09/15 12:15:15;;;;;;;9.20;3.35;;;;;;;;;;4968158;28;20085;-94
2023/09/15 12:17:44;;;;;;;7.35;2.55;;;20.60;1.00;;;;;;4981217;28;20069;-90
2023/09/15 12:20:10;;;;;;;4.63;3.00;;;;;;;;;;4986588;28;20058;-93
2023/09/15 12:22:44;;;;;;;3.63;3.28;;;21.50;1.00;;;;;;4985642;28;20506;-94
2023/09/15 12:25:11;;;;;;;4.97;2.78;;;20.80;1.00;;;;;;4984512;28;20451;-89
2023/09/15 12:27:43;;;;;;;4.07;2.80;;;20.80;1.00;;;;;;4986640;28;20046;-89
2023/09/15 12:30:14;;;;;;;4.88;3.20;;;20.90;1.00;;;;;;4987494;28;20061;-93
2023/09/15 12:32:40;;;;;;;6.43;3.00;;;;;;;;;;4968504;28;20832;-91
2023/09/15 12:35:11;;;;;;;4.07;2.75;;;21.20;1.00;;;;;;4986581;28;20065;-94
2023/09/15 12:37:57;;;;;;;5.95;2.80;;;21.10;1.00;;;;;;4987778;28;20057;-96
2023/09/15 12:40:38;;;;;;;3.63;2.33;;;21.10;1.00;;;;;;4987486;28;20066;-96
2023/09/15 12:43:12;;;;;;;4.82;2.60;;;21.20;1.00;;;;;;4968365;28;20051;-96
2023/09/15 12:45:45;;;;;;;5.72;2.88;;;;;;;;;;4971516;28;20053;-95
2023/09/15 12:48:11;;;;;;;7.00;1.93;;;;;;;;;;4970886;28;20069;-92
2023/09/15 12:50:38;;;;;;;6.93;2.85;;;21.30;1.00;;;;;;4965811;28;20387;-89
2023/09/15 12:53:04;;;;;;;7.47;2.55;;;;;;;;;;4977030;28;20050;-88
2023/09/15 12:55:31;;;;;;;5.63;2.88;;;;;;;;;;4967262;28;20160;-88
2023/09/15 12:57:57;;;;;;;2.97;2.10;;;;;;;;;;4966256;28;20042;-88
2023/09/15 13:00:23;;;;;;;3.03;2.33;;;;;;;;;;4966141;28;20418;-87
2023/09/15 13:02:49;;;;;;;5.80;2.45;;;;;;;;;;4966467;28;20073;-87
2023/09/15 13:05:15;;;;;;;4.93;2.15;;;21.40;1.00;;;;;;4984237;28;20093;-88
2023/09/15 13:07:44;;;;;;;4.60;2.35;;;;;;;;;;4950420;28;20038;-88
2023/09/15 13:10:10;;;;;;;3.80;2.15;;;21.20;1.00;;;;;;4982350;28;20046;-91
2023/09/15 13:12:37;;;;;;;7.28;2.40;;;21.40;1.00;;;;;;4981978;28;20050;-88
2023/09/15 13:15:04;;;;;;;4.22;3.30;;;21.10;1.00;;;;;;4984440;28;20488;-90
2023/09/15 13:17:31;;;;;;;4.28;2.55;;;;;;;;;;4984625;28;20736;-87
2023/09/15 13:19:59;;;;;;;5.22;2.58;;;;;;;;;;4966763;28;20046;-87
2023/09/15 13:22:25;;;;;;;5.60;2.38;;;;;;;;;;4966740;28;20486;-88
2023/09/15 13:24:52;;;;;;;5.40;2.47;;;21.40;1.00;;;;;;4982402;28;20065;-93
2023/09/15 13:27:18;;;;;;;4.05;2.45;;;;;;;;;;4967315;28;20050;-87
2023/09/15 13:29:44;;;;;;;6.00;2.50;;;;;;;;;;4982180;28;20081;-87
2023/09/15 13:32:11;;;;;;;7.93;2.55;;;;;;;;;;4966514;28;20104;-87
2023/09/15 13:34:37;;;;;;;6.88;2.40;;;;;;;;;;4983161;28;20484;-88
2023/09/15 13:37:03;;;;;;;6.80;2.78;;;21.50;1.00;;;;;;4950239;28;20042;-88
2023/09/15 13:39:29;;;;;;;3.08;1.98;;;21.80;1.00;;;;;;4983683;28;20081;-87
2023/09/15 13:41:57;;;;;;;3.00;1.92;;;21.80;1.00;;;;;;4951083;28;20050;-87
2023/09/15 13:44:23;;;;;;;2.78;2.55;;;;;;;;;;4965146;28;20053;-88
2023/09/15 13:46:49;;;;;;;5.05;2.10;;;;;;;;;;4979767;28;20118;-88
2023/09/15 13:49:16;;;;;;;3.35;2.05;;;;;;;;;;4966882;28;20133;-94
2023/09/15 13:51:48;;;;;;;8.80;2.65;;;21.90;1.00;;;;;;4965672;28;20054;-88
2023/09/15 13:54:20;;;;;;;3.75;2.10;;;;;;;;;;4982049;28;20300;-88
2023/09/15 13:56:46;;;;;;;8.30;2.80;;;21.90;1.00;;;;;;4968082;28;20061;-93
2023/09/15 13:59:12;;;;;;;7.35;2.28;;;;;;;;;;4988692;28;20031;-88
2023/09/15 14:01:39;;;;;;;4.55;2.22;;;;;;;;;;4969674;28;20058;-88
2023/09/15 14:04:08;;;;;;;4.03;2.05;;;21.90;1.00;;;;;;4985801;28;20046;-86
2023/09/15 14:06:35;;;;;;;3.60;2.28;;;;;;;;;;4985743;28;20108;-88
2023/09/15 14:09:01;;;;;;;3.85;2.00;;;;;;;;;;4968707;28;20050;-87
2023/09/15 14:11:27;;;;;;;6.57;2.88;;;22.10;1.00;;;;;;4985119;28;20502;-87
2023/09/15 14:13:53;;;;;;;2.35;2.15;;;22.20;1.00;;;;;;4970494;28;20064;-87
2023/09/15 14:16:19;;;;;;;4.22;2.15;;;;;;;;;;4985402;28;20046;-88
2023/09/15 14:18:46;;;;;;;3.30;2.10;;;;;;;;;;4986045;28;20038;-86
2023/09/15 14:21:11;;;;;;;3.63;2.20;;;22.10;1.00;;;;;;4986489;28;20054;-86
2023/09/15 14:23:37;;;;;;;4.95;2.35;;;22.10;1.00;;;;;;4951484;28;20057;-87